Entebbe, Uganda
Current Conditions -  °F | °C
As of 2:55 PM on Thursday 29 Jan 2015 (Local Time) from KQUD Reporting Station
Clear Clear  
Wind Chill: 87°   Ceiling: Unl
Heat Index: 87°   Visibility: 10mi
Dew Point: 60°   Wind: 5mph
Humidity: 40%   Direction: 220°SW
Pressure: 30.07"   Gusts: NA
Location:  0.06°N, 32.46°E
Report Text: KQUD 291155Z AUTO 22004KT 10SM CLR 31/16 A3007 RMK AO2 SLP120 T03050156 10296 20187 57026 $
Loading
Personal Weather Stations






























Interactive Weather Map New forecast layout! Learn more

10-Day Weather Forecast

Advertisements
Track Severe Weather on mobile